Time;durP1;ratioP1;P1;durP2;ratioP2;P2;SDS_P1;SDS_P2;PMS_P1;PMS_P2;Temp;Humidity;BMP_temperature;BMP_pressure;BME280_temperature;BME280_humidity;BME280_pressure;Samples;Min_cycle;Max_cycle;Signal;HPM_P1;HPM_P2
2023/01/04 00:01:26;;;;;;;18.67;12.47;;;;;;;7.01;100.00;101634.27;1518498;85;21375;-80
2023/01/04 00:03:53;;;;;;;25.40;13.47;;;;;;;7.06;100.00;101632.69;1519988;85;21603;-81
2023/01/04 00:06:19;;;;;;;19.57;13.30;;;;;;;6.99;100.00;101638.78;1523701;85;21359;-81
2023/01/04 00:08:46;;;;;;;17.13;11.90;;;;;;;6.99;100.00;101640.09;1517357;85;22388;-82
2023/01/04 00:11:17;;;;;;;19.50;11.63;;;;;;;6.97;100.00;101632.31;1520384;85;21440;-82
2023/01/04 00:13:44;;;;;;;18.73;10.80;;;;;;;6.96;99.38;101639.84;1524393;85;22342;-81
2023/01/04 00:16:15;;;;;;;14.17;9.47;;;;;;;6.90;96.24;101639.35;1438963;85;21182;-81
2023/01/04 00:18:42;;;;;;;15.83;9.65;;;;;;;6.90;95.24;101642.82;1611381;85;22347;-82
2023/01/04 00:21:12;;;;;;;17.50;7.60;;;;;;;6.88;94.90;101638.14;1439731;85;21234;-80
2023/01/04 00:23:40;;;;;;;10.63;8.00;;;;;;;6.85;91.39;101640.09;1435253;85;21322;-80
2023/01/04 00:26:10;;;;;;;9.20;6.53;;;;;;;6.83;91.23;101642.00;1426357;86;21308;-80
2023/01/04 00:33:29;;;;;;;10.07;6.23;;;;;;;6.82;90.39;101649.50;1595665;86;22047;-82
2023/01/04 00:35:55;;;;;;;6.77;5.07;;;;;;;6.73;86.89;101642.56;1429044;86;22205;-85
2023/01/04 00:38:21;;;;;;;7.53;4.77;;;;;;;6.69;85.86;101645.45;1428300;86;21249;-83
2023/01/04 00:40:47;;;;;;;6.17;4.47;;;;;;;6.69;84.65;101646.30;1433917;86;21219;-82
2023/01/04 00:43:13;;;;;;;6.57;4.37;;;;;;;6.69;84.40;101655.98;1534133;86;21336;-84
2023/01/04 00:45:42;;;;;;;6.87;4.23;;;;;;;6.68;82.86;101656.94;1428118;86;21330;-83
2023/01/04 00:48:08;;;;;;;6.57;4.37;;;;;;;6.65;81.63;101656.64;1410170;87;21212;-82
2023/01/04 00:50:35;;;;;;;6.37;3.83;;;;;;;6.67;82.81;101660.48;1479223;86;21359;-82
2023/01/04 00:53:01;;;;;;;8.67;5.03;;;;;;;6.66;81.26;101657.01;1501049;85;21506;-83
2023/01/04 00:55:30;;;;;;;7.53;4.30;;;;;;;6.65;81.78;101660.59;1504703;85;21565;-82
2023/01/04 00:57:57;;;;;;;5.87;3.97;;;;;;;6.63;81.85;101660.30;1489520;86;22312;-83
2023/01/04 01:00:23;;;;;;;10.33;4.97;;;;;;;6.60;82.18;101666.59;1509171;86;21478;-83
2023/01/04 01:03:02;;;;;;;8.57;5.13;;;;;;;6.60;82.45;101666.59;1507570;85;22416;-82
2023/01/04 01:05:28;;;;;;;7.40;5.33;;;;;;;6.59;83.17;101665.35;1504827;85;22467;-81
2023/01/04 01:07:55;;;;;;;8.57;4.60;;;;;;;6.56;82.98;101667.73;1507205;86;21367;-82
2023/01/04 01:10:22;;;;;;;9.13;5.40;;;;;;;6.54;83.85;101664.33;1448212;86;22283;-81
2023/01/04 01:12:48;;;;;;;7.43;5.30;;;;;;;6.48;83.26;101663.38;1503482;86;21337;-81
2023/01/04 01:15:14;;;;;;;6.07;4.27;;;;;;;6.47;83.63;101662.98;1494620;86;21425;-81
2023/01/04 01:17:40;;;;;;;11.37;4.97;;;;;;;6.42;83.06;101666.38;1504243;85;21492;-81
2023/01/04 01:20:09;;;;;;;8.83;5.70;;;;;;;6.42;83.83;101674.27;1510597;85;21477;-81
2023/01/04 01:22:35;;;;;;;7.40;5.63;;;;;;;6.40;84.44;101673.03;1502080;85;22159;-81
2023/01/04 01:25:02;;;;;;;10.60;6.00;;;;;;;6.35;83.82;101668.50;1499282;85;21337;-81
2023/01/04 01:27:28;;;;;;;10.43;5.60;;;;;;;6.36;84.63;101671.97;1498419;85;21553;-82
2023/01/04 01:29:54;;;;;;;7.33;4.60;;;;;;;6.33;84.93;101673.87;1507134;85;21315;-81
2023/01/04 01:32:21;;;;;;;9.50;6.47;;;;;;;6.30;85.06;101683.25;1510296;86;21553;-81
2023/01/04 01:34:47;;;;;;;7.73;5.83;;;;;;;6.28;85.02;101681.64;1502283;85;21559;-81
2023/01/04 01:37:13;;;;;;;9.20;5.53;;;;;;;6.23;83.75;101680.58;1502499;85;21505;-81
2023/01/04 01:39:39;;;;;;;7.43;5.47;;;;;;;6.25;85.06;101681.35;1505794;86;22396;-81
2023/01/04 01:42:05;;;;;;;7.83;6.23;;;;;;;6.24;85.50;101673.54;1499001;86;21865;-81
2023/01/04 01:44:58;;;;;;;8.73;5.97;;;;;;;6.20;85.07;101674.66;1506683;86;21425;-81
2023/01/04 01:47:35;;;;;;;10.53;6.33;;;;;;;6.14;84.53;101681.13;1510315;85;21455;-82
2023/01/04 01:50:03;;;;;;;9.93;6.03;;;;;;;6.12;85.12;101682.98;1500134;85;21573;-81
2023/01/04 01:52:33;;;;;;;10.47;5.67;;;;;;;6.13;85.30;101676.81;1500443;86;21329;-82
2023/01/04 01:55:06;;;;;;;9.90;6.62;;;;;;;6.12;85.78;101677.72;1511083;86;21403;-81
2023/01/04 01:57:38;;;;;;;13.50;7.10;;;;;;;6.10;85.59;101675.20;1509795;86;21381;-82
2023/01/04 02:00:11;;;;;;;8.87;5.73;;;;;;;6.12;86.14;101669.84;1502060;85;21374;-82
2023/01/04 02:02:51;;;;;;;11.03;6.07;;;;;;;6.12;86.91;101668.52;1499151;86;22462;-78
2023/01/04 02:05:21;;;;;;;12.27;6.83;;;;;;;6.13;87.09;101666.30;1492331;85;21477;-79
2023/01/04 02:07:49;;;;;;;11.60;6.80;;;;;;;6.17;88.04;101664.33;1504953;85;22364;-81
2023/01/04 02:10:22;;;;;;;10.23;6.27;;;;;;;6.17;88.40;101660.39;1502939;85;21522;-80
2023/01/04 02:12:50;;;;;;;11.73;6.43;;;;;;;6.17;88.24;101663.02;1506640;86;22400;-80
2023/01/04 02:15:17;;;;;;;9.13;6.53;;;;;;;6.11;87.13;101668.16;1492707;86;21522;-80
2023/01/04 02:18:07;;;;;;;11.43;7.23;;;;;;;6.04;86.49;101660.23;1502905;86;21397;-80
2023/01/04 02:21:03;;;;;;;10.65;5.47;;;;;;;6.00;85.66;101660.04;1500201;85;21410;-80
2023/01/04 02:24:24;;;;;;;10.40;6.60;;;;;;;6.00;86.07;101663.98;1492032;85;21521;-82
2023/01/04 02:27:14;;;;;;;8.57;5.17;;;;;;;5.96;85.84;101661.16;1491455;85;21448;-83
2023/01/04 02:29:52;;;;;;;9.45;6.17;;;;;;;5.91;85.45;101663.16;1500443;86;21437;-85
2023/01/04 02:32:35;;;;;;;7.20;5.43;;;;;;;5.88;85.49;101664.19;1506003;86;21602;-84
2023/01/04 02:35:22;;;;;;;7.47;4.67;;;;;;;5.85;85.12;101667.83;1496226;86;21424;-84
2023/01/04 02:38:14;;;;;;;9.33;5.93;;;;;;;5.86;84.55;101666.05;1504236;86;21411;-83
2023/01/04 02:41:19;;;;;;;9.30;5.80;;;;;;;5.89;85.44;101660.14;1512090;86;21491;-84
2023/01/04 02:51:31;;;;;;;11.87;5.20;;;;;;;5.95;82.84;101668.65;1507101;86;21572;-83
2023/01/04 02:54:02;;;;;;;6.10;4.40;;;;;;;5.99;81.81;101670.19;1502260;86;21410;-83
2023/01/04 02:56:36;;;;;;;6.53;4.45;;;;;;;6.01;82.00;101664.35;1495610;86;22365;-83
2023/01/04 03:06:36;;;;;;;8.27;4.83;;;;;;;5.96;82.06;101660.69;1504768;85;21411;-82
2023/01/04 03:09:14;;;;;;;7.60;4.40;;;;;;;5.96;81.75;101662.00;1504877;86;21345;-82
2023/01/04 03:14:48;;;;;;;10.20;5.15;;;;;;;5.97;81.45;101662.84;1502509;86;21500;-82
2023/01/04 03:17:18;;;;;;;6.87;4.47;;;;;;;5.94;81.73;101658.61;1499680;86;21434;-80
2023/01/04 03:19:55;;;;;;;6.80;5.07;;;;;;;5.96;81.03;101663.79;1498628;86;21402;-80
2023/01/04 03:37:15;;;;;;;8.00;4.70;;;;;;;5.79;84.48;101663.40;1492284;86;21486;-82
2023/01/04 03:48:45;;;;;;;8.28;5.15;;;;;;;5.79;85.80;101673.44;1516732;86;21300;-80
2023/01/04 03:51:22;;;;;;;13.17;6.70;;;;;;;5.80;86.14;101667.23;1509718;86;21460;-81
2023/01/04 03:54:03;;;;;;;11.23;5.83;;;;;;;5.79;86.38;101675.22;1505015;86;21373;-81
2023/01/04 03:56:32;;;;;;;10.10;6.17;;;;;;;5.76;87.12;101677.55;1507698;85;21570;-80
2023/01/04 03:58:59;;;;;;;7.37;4.87;;;;;;;5.70;86.62;101671.33;1507107;86;22313;-81
2023/01/04 04:01:27;;;;;;;11.00;5.37;;;;;;;5.64;85.21;101667.73;1501589;85;21344;-81
2023/01/04 04:09:25;;;;;;;9.50;4.87;;;;;;;5.68;85.36;101667.09;1511139;86;21352;-81
2023/01/04 04:11:51;;;;;;;10.77;6.27;;;;;;;5.67;83.51;101661.00;1505242;86;21934;-81
2023/01/04 04:14:17;;;;;;;17.03;8.07;;;;;;;5.72;85.49;101664.66;1503610;85;22503;-82
2023/01/04 04:16:43;;;;;;;7.23;5.87;;;;;;;5.72;86.00;101664.66;1499404;85;21381;-82
2023/01/04 04:19:10;;;;;;;10.03;6.30;;;;;;;5.70;86.53;101657.32;1511937;86;21543;-82
2023/01/04 04:21:36;;;;;;;8.93;6.90;;;;;;;5.63;86.52;101660.30;1512288;85;21631;-83
2023/01/04 04:24:03;;;;;;;8.23;6.43;;;;;;;5.53;86.48;101673.58;1508807;85;21418;-83
2023/01/04 04:26:29;;;;;;;11.47;5.63;;;;;;;5.45;86.35;101680.18;1489314;86;22328;-83
2023/01/04 04:28:56;;;;;;;9.73;6.33;;;;;;;5.44;87.09;101680.65;1510667;85;21381;-80
2023/01/04 04:31:22;;;;;;;10.03;4.97;;;;;;;5.42;87.25;101679.41;1528704;85;21803;-81
2023/01/04 04:33:49;;;;;;;17.13;8.53;;;;;;;5.42;86.84;101679.41;1524684;85;21833;-81
2023/01/04 04:36:15;;;;;;;10.60;5.90;;;;;;;5.47;87.47;101678.30;1516426;85;21388;-81
2023/01/04 04:38:42;;;;;;;8.40;6.00;;;;;;;5.44;87.54;101679.34;1515413;85;21580;-81
2023/01/04 04:43:58;;;;;;;11.57;6.97;;;;;;;5.35;87.57;101678.06;1517925;85;21411;-83
2023/01/04 04:46:24;;;;;;;10.20;7.43;;;;;;;5.28;87.77;101682.41;1523000;85;21307;-83
2023/01/04 04:48:51;;;;;;;23.80;9.13;;;;;;;5.20;88.02;101682.80;1526524;85;21337;-84
2023/01/04 04:51:17;;;;;;;15.27;8.23;;;;;;;5.10;86.95;101685.55;1521361;85;21537;-83
2023/01/04 04:53:44;;;;;;;10.63;6.77;;;;;;;5.06;87.78;101685.31;1514720;85;21373;-84
2023/01/04 04:56:10;;;;;;;10.83;6.77;;;;;;;5.03;88.27;101686.80;1516950;85;21469;-85
2023/01/04 04:58:38;;;;;;;9.17;6.17;;;;;;;4.98;88.10;101686.59;1522725;85;21337;-81
2023/01/04 05:01:05;;;;;;;9.00;7.27;;;;;;;4.96;88.59;101684.50;1520878;85;21344;-83
2023/01/04 05:03:32;;;;;;;10.80;6.73;;;;;;;4.94;88.73;101691.59;1523415;85;21388;-83
2023/01/04 05:05:58;;;;;;;10.37;6.90;;;;;;;4.89;88.77;101691.02;1520039;85;21493;-83
2023/01/04 05:08:24;;;;;;;14.40;7.97;;;;;;;4.81;88.90;101693.18;1521391;85;21322;-82
2023/01/04 05:10:50;;;;;;;14.47;8.70;;;;;;;4.71;89.09;101697.19;1528218;85;22431;-83
2023/01/04 05:13:17;;;;;;;12.93;8.80;;;;;;;4.61;89.17;101705.16;1520727;85;21366;-82
2023/01/04 05:15:47;;;;;;;11.90;7.67;;;;;;;4.47;89.60;101703.23;1525202;85;21358;-82
2023/01/04 05:18:15;;;;;;;12.03;8.87;;;;;;;4.36;90.09;101705.06;1516843;85;21419;-83
2023/01/04 05:20:42;;;;;;;12.20;7.73;;;;;;;4.29;90.46;101711.55;1519679;85;21559;-82
2023/01/04 05:23:11;;;;;;;12.57;8.37;;;;;;;4.24;90.91;101706.52;1520742;85;21351;-83
2023/01/04 05:25:38;;;;;;;12.87;7.57;;;;;;;4.22;91.30;101706.21;1518169;85;21507;-82
2023/01/04 05:28:06;;;;;;;15.30;9.43;;;;;;;4.17;91.49;101701.65;1523361;85;21381;-83
2023/01/04 05:30:52;;;;;;;13.87;8.27;;;;;;;4.14;91.94;101701.80;1504193;85;21470;-86
2023/01/04 05:33:28;;;;;;;15.70;9.27;;;;;;;4.09;91.98;101702.52;1507747;86;21360;-86
2023/01/04 05:35:57;;;;;;;14.57;8.53;;;;;;;4.02;92.25;101710.64;1504406;86;21418;-86
2023/01/04 05:38:23;;;;;;;19.67;8.57;;;;;;;3.95;92.78;101707.95;1507603;86;21352;-83
2023/01/04 05:40:50;;;;;;;11.67;8.17;;;;;;;3.92;92.45;101708.09;1507353;85;21514;-83
2023/01/04 05:43:19;;;;;;;14.07;8.90;;;;;;;3.93;92.69;101709.41;1508800;86;21351;-84
2023/01/04 05:45:52;;;;;;;13.77;8.73;;;;;;;3.92;92.77;101709.41;1509164;85;21323;-83
2023/01/04 05:48:20;;;;;;;13.50;8.33;;;;;;;3.86;93.02;101696.61;1506895;86;21529;-85
2023/01/04 05:50:48;;;;;;;10.83;7.93;;;;;;;3.87;92.64;101712.70;1512163;85;22253;-83
2023/01/04 05:53:17;;;;;;;12.20;8.07;;;;;;;3.81;92.34;101719.54;1490586;86;21425;-85
2023/01/04 05:55:45;;;;;;;10.70;7.07;;;;;;;3.78;92.39;101711.83;1504116;85;21374;-86
2023/01/04 05:58:11;;;;;;;13.83;9.07;;;;;;;3.79;92.46;101720.91;1500121;86;21366;-87
2023/01/04 06:00:37;;;;;;;16.03;8.97;;;;;;;3.79;92.62;101725.30;1504432;85;21427;-86
2023/01/04 06:03:03;;;;;;;13.97;8.90;;;;;;;3.80;92.84;101721.78;1508998;85;21541;-86
2023/01/04 06:05:29;;;;;;;14.23;8.50;;;;;;;3.84;93.23;101722.02;1488849;86;22453;-87
2023/01/04 06:07:56;;;;;;;18.17;8.53;;;;;;;3.89;93.32;101721.81;1511025;85;21300;-89
2023/01/04 06:10:22;;;;;;;14.27;9.17;;;;;;;3.94;93.53;101726.34;1494485;86;21547;-87
2023/01/04 06:12:48;;;;;;;13.50;8.03;;;;;;;3.97;93.51;101725.76;1507879;86;22349;-86
2023/01/04 06:15:14;;;;;;;13.20;9.13;;;;;;;4.03;93.60;101733.78;1508492;85;21308;-88
2023/01/04 06:17:41;;;;;;;13.73;8.57;;;;;;;4.06;94.04;101735.79;1508475;85;21994;-87
2023/01/04 06:20:09;;;;;;;13.83;9.90;;;;;;;4.10;94.17;101742.19;1505587;85;22232;-86
2023/01/04 06:22:36;;;;;;;12.47;8.70;;;;;;;4.10;94.37;101746.13;1511605;86;22320;-85
2023/01/04 06:25:03;;;;;;;11.03;8.40;;;;;;;4.11;94.40;101749.96;1493007;86;21404;-87
2023/01/04 06:27:29;;;;;;;17.07;9.63;;;;;;;4.15;94.57;101749.38;1516021;85;21344;-86
2023/01/04 06:29:56;;;;;;;13.53;8.63;;;;;;;4.20;94.85;101749.54;1521491;84;22409;-87
2023/01/04 06:32:22;;;;;;;13.27;8.30;;;;;;;4.26;94.90;101752.33;1517173;85;21352;-88
2023/01/04 06:34:48;;;;;;;13.13;8.57;;;;;;;4.28;94.60;101751.77;1519587;85;22291;-87
2023/01/04 06:37:14;;;;;;;19.90;9.10;;;;;;;4.30;94.21;101749.93;1524268;85;21367;-87
2023/01/04 06:39:41;;;;;;;22.20;12.70;;;;;;;4.34;94.10;101754.09;1528488;85;21366;-88
2023/01/04 06:42:43;;;;;;;18.13;11.93;;;;;;;4.37;94.30;101750.00;1510460;85;22218;-86
2023/01/04 06:44:34;;;;;;;14.77;10.07;;;;;;;4.37;94.56;101747.38;1519182;85;21404;-86
2023/01/04 06:47:01;;;;;;;19.40;12.20;;;;;;;4.37;94.61;101750.00;1521169;85;21500;-81
2023/01/04 06:49:27;;;;;;;19.60;11.80;;;;;;;4.38;94.57;101751.72;1523472;85;22210;-82
2023/01/04 06:51:53;;;;;;;15.10;10.53;;;;;;;4.38;94.76;101751.72;1518286;85;21411;-85
2023/01/04 06:54:19;;;;;;;20.77;13.37;;;;;;;4.40;94.54;101753.81;1522869;85;21446;-83
2023/01/04 06:56:45;;;;;;;22.00;13.93;;;;;;;4.45;94.74;101753.10;1521658;85;22115;-86
2023/01/04 06:59:11;;;;;;;15.53;10.00;;;;;;;4.48;94.95;101758.19;1513945;85;21351;-85
2023/01/04 07:01:37;;;;;;;15.70;10.80;;;;;;;4.51;94.93;101760.66;1525423;85;21389;-87
2023/01/04 07:04:03;;;;;;;16.67;10.73;;;;;;;4.56;94.96;101760.91;1525617;85;21366;-85
2023/01/04 07:06:30;;;;;;;14.47;9.90;;;;;;;4.57;95.12;101758.20;1522582;85;22144;-90
2023/01/04 07:08:56;;;;;;;14.30;9.80;;;;;;;4.58;95.21;101766.94;1522879;85;21448;-89
2023/01/04 07:11:22;;;;;;;16.87;10.27;;;;;;;4.56;95.10;101759.13;1522182;85;22045;-86
2023/01/04 07:13:48;;;;;;;19.07;11.83;;;;;;;4.55;94.87;101756.14;1525025;85;22130;-86
2023/01/04 07:16:14;;;;;;;16.47;10.00;;;;;;;4.60;95.14;101758.51;1526249;85;21543;-85
2023/01/04 07:18:40;;;;;;;14.40;9.50;;;;;;;4.69;95.44;101752.36;1519147;85;21367;-85
2023/01/04 07:21:07;;;;;;;21.07;11.17;;;;;;;4.78;95.71;101750.20;1517854;85;22209;-85
2023/01/04 07:23:33;;;;;;;14.10;10.57;;;;;;;4.87;95.72;101744.02;1524052;85;21395;-85
2023/01/04 07:26:02;;;;;;;16.90;11.10;;;;;;;4.94;95.70;101755.87;1521295;85;21507;-85
2023/01/04 07:31:13;;;;;;;33.83;22.43;;;;;;;5.02;95.14;101752.02;1532186;85;21300;-77
2023/01/04 07:33:39;;;;;;;26.47;15.20;;;;;;;5.03;94.43;101752.39;1520925;85;22233;-79
2023/01/04 07:36:07;;;;;;;19.17;12.13;;;;;;;5.07;94.25;101750.02;1520528;85;21300;-78
2023/01/04 07:38:34;;;;;;;16.70;12.00;;;;;;;5.14;94.54;101748.75;1523185;85;22217;-78
2023/01/04 07:41:00;;;;;;;29.43;13.17;;;;;;;5.24;94.88;101749.98;1515288;85;21285;-78
2023/01/04 07:43:27;;;;;;;30.97;18.37;;;;;;;5.34;94.20;101747.70;1524253;85;21425;-78
2023/01/04 07:45:53;;;;;;;20.90;13.57;;;;;;;5.40;93.79;101748.21;1523953;85;22179;-78
2023/01/04 07:48:19;;;;;;;36.77;20.07;;;;;;;5.49;93.67;101744.72;1513066;85;21330;-78
2023/01/04 07:50:46;;;;;;;23.33;15.97;;;;;;;5.59;93.67;101752.49;1517959;85;21330;-77
2023/01/04 07:53:12;;;;;;;29.20;15.67;;;;;;;5.64;93.10;101756.56;1517831;85;21345;-84
2023/01/04 07:55:39;;;;;;;16.63;12.53;;;;;;;5.67;92.36;101762.13;1525332;85;21452;-82
2023/01/04 07:58:05;;;;;;;17.43;11.67;;;;;;;5.72;92.59;101758.76;1509747;85;22283;-83
2023/01/04 08:00:32;;;;;;;14.27;11.10;;;;;;;5.74;92.40;101752.96;1521171;85;21850;-84
2023/01/04 08:02:59;;;;;;;17.97;11.40;;;;;;;5.78;92.26;101758.45;1522445;85;21514;-83
2023/01/04 08:05:25;;;;;;;17.00;10.53;;;;;;;5.81;92.36;101754.78;1516441;85;22217;-83
2023/01/04 08:07:52;;;;;;;19.60;11.33;;;;;;;5.88;92.40;101756.98;1513371;85;21329;-83
2023/01/04 08:10:18;;;;;;;16.10;9.90;;;;;;;5.96;92.23;101755.77;1522233;85;21396;-83
2023/01/04 08:12:44;;;;;;;25.03;16.53;;;;;;;6.04;92.06;101745.64;1524714;85;21411;-83
2023/01/04 08:15:14;;;;;;;62.80;31.63;;;;;;;6.11;91.67;101743.07;1524285;85;22299;-84
2023/01/04 08:17:39;;;;;;;22.50;13.43;;;;;;;6.18;91.55;101744.88;1515633;85;21419;-82
2023/01/04 08:20:06;;;;;;;20.00;11.57;;;;;;;6.18;88.60;101749.66;1522105;85;21624;-89
2023/01/04 08:22:32;;;;;;;15.80;11.23;;;;;;;6.17;87.42;101746.66;1519060;84;21338;-89
2023/01/04 08:24:58;;;;;;;29.53;21.73;;;;;;;6.16;86.14;101749.36;1523509;85;21457;-89
2023/01/04 08:27:25;;;;;;;43.37;30.97;;;;;;;6.17;86.56;101747.98;1501724;85;21359;-86
2023/01/04 08:29:51;;;;;;;35.13;20.80;;;;;;;6.21;87.18;101749.48;1518727;85;21447;-88
2023/01/04 08:32:17;;;;;;;34.93;22.03;;;;;;;6.20;84.40;101752.22;1522523;85;22254;-87
2023/01/04 08:34:43;;;;;;;24.43;17.57;;;;;;;6.26;87.03;101754.02;1517243;84;21433;-87
2023/01/04 08:37:09;;;;;;;50.60;27.37;;;;;;;6.35;87.44;101753.13;1527726;85;21515;-88
2023/01/04 08:39:36;;;;;;;58.87;31.60;;;;;;;6.43;87.90;101748.27;1520712;85;21344;-87
2023/01/04 08:42:02;;;;;;;42.50;26.03;;;;;;;6.54;88.13;101746.71;1525561;85;22453;-88
2023/01/04 08:44:29;;;;;;;27.10;17.57;;;;;;;6.64;87.94;101736.48;1517929;85;21579;-88
2023/01/04 08:46:55;;;;;;;22.17;14.53;;;;;;;6.70;87.58;101726.95;1519669;85;22333;-89
2023/01/04 08:49:22;;;;;;;23.63;15.47;;;;;;;6.80;86.95;101734.28;1515725;85;21307;-83
2023/01/04 08:51:49;;;;;;;31.73;21.03;;;;;;;6.85;86.06;101732.20;1518640;85;21434;-90
2023/01/04 08:54:16;;;;;;;45.87;27.23;;;;;;;6.90;85.81;101730.98;1519649;85;21330;-92
2023/01/04 08:56:42;;;;;;;40.83;23.63;;;;;;;6.99;85.85;101727.83;1524296;85;21679;-87
2023/01/04 08:59:11;;;;;;;27.60;18.03;;;;;;;7.02;83.84;101734.70;1522729;85;21389;-86
2023/01/04 09:01:38;;;;;;;25.20;15.43;;;;;;;6.97;80.50;101736.75;1493720;85;22396;-88
2023/01/04 09:04:04;;;;;;;80.33;46.23;;;;;;;7.00;81.30;101741.83;1487727;87;21353;-88
2023/01/04 09:06:31;;;;;;;27.00;17.03;;;;;;;7.02;81.14;101730.75;1490664;87;21330;-87
2023/01/04 09:08:57;;;;;;;30.63;18.87;;;;;;;7.13;83.33;101723.49;1498022;86;21963;-87
2023/01/04 09:11:24;;;;;;;20.67;13.97;;;;;;;7.19;81.83;101721.80;1494179;86;21330;-88
2023/01/04 09:13:56;;;;;;;17.50;11.80;;;;;;;7.28;82.88;101731.79;1491065;86;21475;-87
2023/01/04 09:16:23;;;;;;;20.03;12.83;;;;;;;7.26;79.55;101725.77;1486108;86;21368;-87
2023/01/04 09:18:50;;;;;;;20.80;14.10;;;;;;;7.32;80.71;101724.06;1500132;87;21351;-88
2023/01/04 09:21:19;;;;;;;18.53;12.17;;;;;;;7.33;80.13;101730.17;1499687;86;21530;-88
2023/01/04 09:23:46;;;;;;;19.97;14.13;;;;;;;7.24;76.53;101719.26;1492966;86;21913;-89
2023/01/04 09:26:27;;;;;;;21.47;13.60;;;;;;;7.23;77.92;101722.84;1493288;86;22462;-86
2023/01/04 09:28:55;;;;;;;28.73;16.82;;;;;;;7.30;79.66;101721.14;1517347;85;21404;-88
2023/01/04 09:31:27;;;;;;;22.50;15.03;;;;;;;7.39;80.49;101723.20;1521777;84;21360;-90
2023/01/04 09:33:55;;;;;;;18.57;12.73;;;;;;;7.45;80.25;101722.81;1502389;85;21345;-89
2023/01/04 09:36:23;;;;;;;18.90;12.73;;;;;;;7.52;80.47;101718.03;1525414;85;21432;-89
2023/01/04 09:38:50;;;;;;;15.90;10.30;;;;;;;7.58;80.29;101725.55;1522318;85;21271;-89
2023/01/04 09:41:27;;;;;;;20.20;10.77;;;;;;;7.61;80.48;101714.33;1517787;85;22410;-89
2023/01/04 09:44:04;;;;;;;16.53;11.97;;;;;;;7.66;80.30;101720.17;1518786;85;22290;-88
2023/01/04 09:46:53;;;;;;;14.37;9.40;;;;;;;7.67;79.42;101711.30;1520539;85;21479;-86
2023/01/04 09:49:27;;;;;;;18.13;11.40;;;;;;;7.72;79.50;101710.19;1523986;85;21418;-88
2023/01/04 09:51:59;;;;;;;18.70;10.53;;;;;;;7.77;79.31;101702.81;1521797;85;21344;-90
2023/01/04 09:54:30;;;;;;;85.37;46.20;;;;;;;7.82;78.65;101701.57;1520352;85;21514;-90
2023/01/04 09:56:58;;;;;;;60.93;36.63;;;;;;;7.90;79.51;101690.54;1520978;85;21484;-87
2023/01/04 09:59:30;;;;;;;20.57;12.10;;;;;;;7.99;78.98;101685.98;1521958;85;21367;-87
2023/01/04 10:02:02;;;;;;;60.27;38.23;;;;;;;8.11;78.93;101677.30;1500376;85;21499;-88
2023/01/04 10:04:47;;;;;;;120.23;60.50;;;;;;;8.18;77.93;101675.56;1518085;85;21639;-87
2023/01/04 10:07:30;;;;;;;85.60;45.70;;;;;;;8.25;78.04;101668.92;1521606;85;21481;-89
2023/01/04 10:09:58;;;;;;;19.27;12.63;;;;;;;8.33;78.40;101657.39;1521572;85;21322;-88
2023/01/04 10:12:44;;;;;;;18.37;11.40;;;;;;;8.43;78.54;101655.86;1520524;85;21352;-90
2023/01/04 10:15:28;;;;;;;17.73;11.30;;;;;;;8.52;77.66;101650.44;1524301;85;21588;-90
2023/01/04 10:18:17;;;;;;;20.10;13.33;;;;;;;8.62;76.52;101655.92;1518920;85;21322;-91
2023/01/04 10:21:07;;;;;;;26.93;15.87;;;;;;;8.61;75.82;101656.87;1522410;85;21566;-89
2023/01/04 10:24:02;;;;;;;21.33;11.97;;;;;;;8.64;75.52;101654.87;1517786;85;21448;-89
2023/01/04 10:26:43;;;;;;;18.97;11.13;;;;;;;8.70;73.63;101654.92;1520935;85;21446;-90
2023/01/04 10:29:32;;;;;;;18.32;11.03;;;;;;;8.81;75.01;101660.31;1522041;85;21536;-89
2023/01/04 10:32:09;;;;;;;14.33;10.23;;;;;;;9.00;75.02;101664.66;1521994;85;21475;-91
2023/01/04 10:34:44;;;;;;;13.53;9.73;;;;;;;9.12;74.42;101664.30;1521518;85;22313;-89
2023/01/04 10:37:22;;;;;;;30.57;15.17;;;;;;;9.20;73.79;101669.02;1531964;85;21932;-90
2023/01/04 10:39:53;;;;;;;17.80;12.00;;;;;;;9.30;73.37;101664.80;1523954;85;21543;-90
2023/01/04 10:42:37;;;;;;;21.40;11.80;;;;;;;9.30;71.66;101658.19;1505808;85;21345;-89
2023/01/04 10:45:15;;;;;;;24.07;14.27;;;;;;;9.34;72.18;101656.16;1524156;85;21433;-90
2023/01/04 10:48:06;;;;;;;28.43;15.03;;;;;;;9.37;71.54;101666.52;1511334;85;21418;-89
2023/01/04 10:50:58;;;;;;;67.60;27.07;;;;;;;9.41;70.72;101658.27;1522726;85;22797;-88
2023/01/04 10:53:36;;;;;;;25.83;13.67;;;;;;;9.41;69.87;101649.02;1520777;85;21366;-88
2023/01/04 10:56:52;;;;;;;16.33;9.77;;;;;;;9.44;69.45;101651.44;1518371;85;22353;-90
2023/01/04 10:59:33;;;;;;;13.07;9.27;;;;;;;9.48;69.82;101654.70;1523554;85;21469;-87
2023/01/04 11:02:11;;;;;;;12.30;9.13;;;;;;;9.49;69.08;101645.80;1520537;85;21330;-89
2023/01/04 11:04:46;;;;;;;13.60;9.20;;;;;;;9.49;67.90;101645.35;1521194;85;21382;-89
2023/01/04 11:07:26;;;;;;;16.37;10.47;;;;;;;9.54;68.97;101640.20;1520766;85;21545;-89
2023/01/04 11:09:58;;;;;;;17.05;9.95;;;;;;;9.61;68.78;101638.33;1522450;85;21411;-86
2023/01/04 11:12:25;;;;;;;18.50;10.43;;;;;;;9.60;67.55;101634.46;1504968;85;21359;-87
2023/01/04 11:14:52;;;;;;;13.27;7.47;;;;;;;9.56;67.05;101629.05;1524952;85;22202;-88
2023/01/04 11:17:22;;;;;;;16.93;8.93;;;;;;;9.61;67.83;101629.53;1519640;85;21474;-81
2023/01/04 11:19:48;;;;;;;12.83;8.10;;;;;;;9.85;67.44;101635.67;1509649;85;21337;-81
2023/01/04 11:22:56;;;;;;;15.03;8.97;;;;;;;9.94;65.10;101645.56;1524783;85;21373;-81
2023/01/04 11:25:23;;;;;;;15.13;9.20;;;;;;;9.96;65.18;101638.02;1490844;84;21447;-82
2023/01/04 11:28:16;;;;;;;18.13;10.27;;;;;;;9.82;63.27;101621.36;1523462;85;21300;-81
2023/01/04 11:31:03;;;;;;;13.30;8.43;;;;;;;9.86;64.05;101621.48;1512399;85;21433;-81
2023/01/04 11:33:31;;;;;;;14.20;8.23;;;;;;;9.92;63.17;101626.31;1435926;87;22225;-80
2023/01/04 11:35:58;;;;;;;13.87;7.00;;;;;;;9.98;62.93;101607.83;1438642;85;22063;-82
2023/01/04 11:38:28;;;;;;;11.13;8.20;;;;;;;9.94;60.81;101603.25;1591588;85;21476;-82
2023/01/04 11:41:06;;;;;;;15.03;9.48;;;;;;;10.02;61.46;101604.50;1436027;85;21432;-81
2023/01/04 11:43:37;;;;;;;10.83;6.93;;;;;;;10.07;55.98;101607.61;1435957;85;21301;-80
2023/01/04 11:46:09;;;;;;;8.10;5.20;;;;;;;10.12;59.13;101608.11;1437307;85;21176;-80
2023/01/04 11:48:44;;;;;;;11.13;6.77;;;;;;;10.14;57.58;101615.47;1603232;85;21329;-82
2023/01/04 11:51:31;;;;;;;12.07;6.90;;;;;;;10.16;58.82;101605.63;1511478;85;21931;-81
2023/01/04 11:54:18;;;;;;;9.73;6.73;;;;;;;10.16;59.56;101591.07;1520924;85;21418;-86
2023/01/04 11:57:09;;;;;;;8.87;6.27;;;;;;;10.05;56.26;101592.36;1516532;85;21922;-81
2023/01/04 11:59:36;;;;;;;11.50;7.70;;;;;;;10.03;58.07;101588.98;1518465;85;21418;-82
2023/01/04 12:02:25;;;;;;;23.07;12.27;;;;;;;10.03;57.90;101588.48;1522964;85;22395;-81
2023/01/04 12:04:52;;;;;;;22.70;11.53;;;;;;;9.94;58.36;101583.41;1524214;85;21572;-82
2023/01/04 12:07:33;;;;;;;21.27;12.70;;;;;;;10.11;57.41;101579.50;1476298;85;21352;-81
2023/01/04 12:10:03;;;;;;;21.77;13.38;;;;;;;10.35;58.32;101577.29;1522035;85;21581;-82
2023/01/04 12:12:32;;;;;;;14.35;9.65;;;;;;;10.69;59.07;101562.28;1519156;85;21411;-82
2023/01/04 12:15:09;;;;;;;17.63;11.60;;;;;;;10.99;58.33;101560.80;1464963;85;21381;-82
2023/01/04 12:17:53;;;;;;;12.20;8.70;;;;;;;11.18;58.16;101561.50;1507537;85;21600;-82
2023/01/04 12:20:22;;;;;;;12.30;9.17;;;;;;;11.37;57.43;101556.89;1518143;85;22482;-82
2023/01/04 12:22:49;;;;;;;12.23;8.87;;;;;;;11.62;56.38;101551.23;1516943;85;21640;-82
2023/01/04 12:25:49;;;;;;;7.93;6.43;;;;;;;11.94;56.91;101553.06;1512319;85;21448;-82
2023/01/04 12:28:35;;;;;;;9.60;6.97;;;;;;;12.10;54.59;101553.43;1518394;85;21484;-82
2023/01/04 12:31:27;;;;;;;15.20;9.27;;;;;;;12.32;53.16;101543.66;1505750;85;22431;-82
2023/01/04 12:33:59;;;;;;;22.90;14.00;;;;;;;12.45;53.80;101541.61;1575938;85;21389;-80
2023/01/04 12:36:44;;;;;;;12.10;8.47;;;;;;;12.71;54.46;101527.88;1506974;86;21403;-83
2023/01/04 12:39:21;;;;;;;14.10;6.60;;;;;;;12.93;53.62;101518.86;1501296;86;21359;-82